createdAt,value
2019-01-25T00:00:08.918Z,24.50
2019-01-25T00:02:36.319Z,25.20
2019-01-25T00:05:05.298Z,26.37
2019-01-25T00:07:32.697Z,21.50
2019-01-25T00:10:00.208Z,20.43
2019-01-25T00:12:27.699Z,20.80
2019-01-25T00:14:55.102Z,24.70
2019-01-25T00:17:22.499Z,23.30
2019-01-25T00:19:49.920Z,24.13
2019-01-25T00:22:17.314Z,27.80
2019-01-25T00:24:44.711Z,25.77
2019-01-25T00:27:12.323Z,26.67
2019-01-25T00:29:39.714Z,27.80
2019-01-25T00:32:07.127Z,24.53
2019-01-25T00:34:34.566Z,27.50
2019-01-25T00:37:02.200Z,28.13
2019-01-25T00:39:29.618Z,28.77
2019-01-25T00:41:57.511Z,25.87
2019-01-25T00:44:24.906Z,27.37
2019-01-25T00:46:52.306Z,26.33
2019-01-25T00:49:19.719Z,28.57
2019-01-25T00:51:47.111Z,26.57
2019-01-25T00:54:14.495Z,22.83
2019-01-25T00:56:42.034Z,21.93
2019-01-25T00:59:09.434Z,24.90
2019-01-25T01:01:36.828Z,21.73
2019-01-25T01:04:04.650Z,23.00
2019-01-25T01:06:32.041Z,20.50
2019-01-25T01:08:59.439Z,19.47
2019-01-25T01:11:27.050Z,21.00
2019-01-25T01:13:54.440Z,24.67
2019-01-25T01:16:21.831Z,24.60
2019-01-25T01:18:49.275Z,27.03
2019-01-25T01:21:16.671Z,28.93
2019-01-25T01:23:44.056Z,28.43
2019-01-25T01:26:11.620Z,26.50
2019-01-25T01:28:39.023Z,26.73
2019-01-25T01:31:06.402Z,25.50
2019-01-25T01:33:34.012Z,27.83
2019-01-25T01:36:01.691Z,26.53
2019-01-25T01:38:29.393Z,26.70
2019-01-25T01:40:57.010Z,27.70
2019-01-25T01:43:24.408Z,27.80
2019-01-25T01:45:51.804Z,26.57
2019-01-25T01:48:19.227Z,27.37
2019-01-25T01:50:46.610Z,27.20
2019-01-25T01:53:14.014Z,27.17
2019-01-25T01:55:41.679Z,25.33
2019-01-25T01:58:09.089Z,26.30
2019-01-25T02:00:36.487Z,24.87
2019-01-25T02:03:04.496Z,26.30
2019-01-25T02:05:31.871Z,23.30
2019-01-25T02:07:59.423Z,21.97
2019-01-25T02:10:29.613Z,22.40
2019-01-25T02:12:56.418Z,23.20
2019-01-25T02:15:24.618Z,22.93
2019-01-25T02:17:52.284Z,22.57
2019-01-25T02:20:24.821Z,21.70
2019-01-25T02:22:52.211Z,22.30
2019-01-25T02:25:20.134Z,23.23
2019-01-25T02:27:47.536Z,21.83
2019-01-25T02:30:17.731Z,23.00
2019-01-25T02:32:45.172Z,22.30
2019-01-25T02:35:12.571Z,22.23
2019-01-25T02:37:40.218Z,21.20
2019-01-25T02:40:10.521Z,22.40
2019-01-25T02:42:37.938Z,21.10
2019-01-25T02:45:06.905Z,21.17
2019-01-25T02:47:34.533Z,21.33
2019-01-25T02:50:01.963Z,20.37
2019-01-25T02:52:29.346Z,20.17
2019-01-25T02:54:56.817Z,21.03
2019-01-25T02:57:24.202Z,22.50
2019-01-25T02:59:51.597Z,20.40
2019-01-25T03:02:19.133Z,19.60
2019-01-25T03:04:46.522Z,17.87
2019-01-25T03:07:13.935Z,18.70
2019-01-25T03:09:41.362Z,18.60
2019-01-25T03:12:08.756Z,17.03
2019-01-25T03:14:36.165Z,19.13
2019-01-25T03:17:03.594Z,18.60
2019-01-25T03:19:31.001Z,17.63
2019-01-25T03:21:59.553Z,19.73
2019-01-25T03:24:26.958Z,18.60
2019-01-25T03:26:54.359Z,16.60
2019-01-25T03:29:21.802Z,18.20
2019-01-25T03:31:49.252Z,20.27
2019-01-25T03:34:16.636Z,18.73
2019-01-25T03:36:44.324Z,18.30
2019-01-25T03:39:12.130Z,18.97
2019-01-25T03:41:39.527Z,19.97
2019-01-25T03:44:06.923Z,20.30
2019-01-25T03:46:34.345Z,18.63
2019-01-25T03:49:01.752Z,17.10
2019-01-25T03:51:29.154Z,18.80
2019-01-25T03:53:56.755Z,19.73
2019-01-25T03:56:24.161Z,18.93
2019-01-25T03:58:51.552Z,16.87
2019-01-25T04:01:18.990Z,18.70
2019-01-25T04:03:46.392Z,19.97
2019-01-25T04:06:13.791Z,18.43
2019-01-25T04:08:41.229Z,17.20
2019-01-25T04:11:08.619Z,15.60
2019-01-25T04:13:36.018Z,15.23
2019-01-25T04:16:04.091Z,14.87
2019-01-25T04:18:31.506Z,15.63
2019-01-25T04:20:58.902Z,15.70
2019-01-25T04:23:26.610Z,17.30
2019-01-25T04:25:54.011Z,15.43
2019-01-25T04:28:21.397Z,16.47
2019-01-25T04:30:49.098Z,20.00
2019-01-25T04:33:16.522Z,16.30
2019-01-25T04:35:43.921Z,15.70
2019-01-25T04:38:11.363Z,16.93
2019-01-25T04:40:39.275Z,15.77
2019-01-25T04:43:06.675Z,20.40
2019-01-25T04:45:34.138Z,20.20
2019-01-25T04:48:01.541Z,19.87
2019-01-25T04:50:28.931Z,22.70
2019-01-25T04:52:56.577Z,21.40
2019-01-25T04:55:29.472Z,18.50
2019-01-25T04:58:17.745Z,23.27
2019-01-25T05:00:45.266Z,25.47
2019-01-25T05:03:13.048Z,24.60
2019-01-25T05:05:40.515Z,23.63
2019-01-25T05:08:16.231Z,24.03
2019-01-25T05:10:44.111Z,22.53
2019-01-25T05:13:11.503Z,22.77
2019-01-25T05:15:38.900Z,24.60
2019-01-25T05:18:07.111Z,21.50
2019-01-25T05:20:34.618Z,21.23
2019-01-25T05:23:02.535Z,23.50
2019-01-25T05:25:29.979Z,23.03
2019-01-25T05:28:05.318Z,22.50
2019-01-25T05:30:32.755Z,24.70
2019-01-25T05:33:00.150Z,23.03
2019-01-25T05:35:32.770Z,20.53
2019-01-25T05:38:00.227Z,22.87
2019-01-25T05:40:27.814Z,23.57
2019-01-25T05:42:55.213Z,21.73
2019-01-25T05:45:22.918Z,18.17
2019-01-25T05:47:50.306Z,18.83
2019-01-25T05:50:17.735Z,23.30
2019-01-25T05:52:45.282Z,23.23
2019-01-25T05:55:15.963Z,23.10
2019-01-25T05:57:43.327Z,20.43
2019-01-25T06:00:11.936Z,20.80
2019-01-25T06:02:39.347Z,22.53
2019-01-25T06:05:07.005Z,22.67
2019-01-25T06:07:36.425Z,22.67
2019-01-25T06:10:04.426Z,20.70
2019-01-25T06:12:31.883Z,22.27
2019-01-25T06:14:59.327Z,24.20
2019-01-25T06:17:26.922Z,23.10
2019-01-25T06:19:54.349Z,23.43
2019-01-25T06:22:21.794Z,26.13
2019-01-25T06:24:49.205Z,24.77
2019-01-25T06:27:16.607Z,22.83
2019-01-25T06:29:44.058Z,24.50
2019-01-25T06:32:11.510Z,24.40
2019-01-25T06:34:38.898Z,24.57
2019-01-25T06:37:06.338Z,22.60
2019-01-25T06:39:33.954Z,27.27
2019-01-25T06:42:01.642Z,26.90
2019-01-25T06:44:29.094Z,27.53
2019-01-25T06:46:56.494Z,25.70
2019-01-25T06:49:23.885Z,25.10
2019-01-25T06:51:51.354Z,24.00
2019-01-25T06:54:18.766Z,23.80
2019-01-25T06:56:46.156Z,24.67
2019-01-25T06:59:16.338Z,25.60
2019-01-25T07:01:53.203Z,24.10
2019-01-25T07:04:21.149Z,27.20
2019-01-25T07:06:48.546Z,24.90
2019-01-25T07:09:15.936Z,29.00
2019-01-25T07:11:43.743Z,31.83
2019-01-25T07:14:11.140Z,28.17
2019-01-25T07:16:38.532Z,26.33
2019-01-25T07:19:05.992Z,32.03
2019-01-25T07:21:33.390Z,33.20
2019-01-25T07:24:00.803Z,38.23
2019-01-25T07:26:28.406Z,29.40
2019-01-25T07:28:55.870Z,29.20
2019-01-25T07:31:23.255Z,25.73
2019-01-25T07:33:50.711Z,26.53
2019-01-25T07:36:18.104Z,27.53
2019-01-25T07:38:45.768Z,26.83
2019-01-25T07:41:13.588Z,25.27
2019-01-25T07:43:41.041Z,22.77
2019-01-25T07:46:08.500Z,25.07
2019-01-25T07:48:36.184Z,23.13
2019-01-25T07:51:03.765Z,25.87
2019-01-25T07:53:31.159Z,23.53
2019-01-25T07:55:58.616Z,24.97
2019-01-25T07:58:26.037Z,20.90
2019-01-25T08:00:53.465Z,20.00
2019-01-25T08:03:20.882Z,26.17
2019-01-25T08:05:48.312Z,27.30
2019-01-25T08:08:15.687Z,26.27
2019-01-25T08:10:43.240Z,25.40
2019-01-25T08:13:10.643Z,26.20
2019-01-25T08:15:38.065Z,27.83
2019-01-25T08:18:05.561Z,28.40
2019-01-25T08:20:32.958Z,25.20
2019-01-25T08:23:00.347Z,27.00
2019-01-25T08:25:28.047Z,24.93
2019-01-25T08:27:55.605Z,24.10
2019-01-25T08:30:23.196Z,26.67
2019-01-25T08:32:52.428Z,24.97
2019-01-25T08:35:20.700Z,26.47
2019-01-25T08:37:48.365Z,27.97
2019-01-25T08:40:16.269Z,25.17
2019-01-25T08:42:43.911Z,24.67
2019-01-25T08:45:12.025Z,28.90
2019-01-25T08:47:39.417Z,24.00
2019-01-25T08:50:10.786Z,23.60
2019-01-25T08:52:38.375Z,25.33
2019-01-25T08:55:06.034Z,28.70
2019-01-25T08:57:33.413Z,24.80
2019-01-25T09:00:00.851Z,23.83
2019-01-25T09:02:28.242Z,24.57
2019-01-25T09:04:55.650Z,23.97
2019-01-25T09:07:23.263Z,25.50
2019-01-25T09:09:50.674Z,24.47
2019-01-25T09:12:23.283Z,24.63
2019-01-25T09:14:47.498Z,21.63
2019-01-25T09:17:14.955Z,24.10
2019-01-25T09:19:42.362Z,23.70
2019-01-25T09:22:09.820Z,26.80
2019-01-25T09:24:37.238Z,27.50
2019-01-25T09:27:05.643Z,26.83
2019-01-25T09:29:33.188Z,27.63
2019-01-25T09:32:00.576Z,28.50
2019-01-25T09:34:27.964Z,27.03
2019-01-25T09:36:55.586Z,26.70
2019-01-25T09:39:23.158Z,29.43
2019-01-25T09:41:50.758Z,26.40
2019-01-25T09:44:18.190Z,25.10
2019-01-25T09:46:45.577Z,26.20
2019-01-25T09:49:12.988Z,25.70
2019-01-25T09:51:40.562Z,25.47
2019-01-25T09:54:07.992Z,26.13
2019-01-25T09:56:35.463Z,24.13
2019-01-25T09:59:03.198Z,26.67
2019-01-25T10:01:30.603Z,26.40
2019-01-25T10:03:57.986Z,25.30
2019-01-25T10:06:25.534Z,26.50
2019-01-25T10:08:52.954Z,26.20
2019-01-25T10:11:20.362Z,16.87
2019-01-25T10:13:48.241Z,19.37
2019-01-25T10:16:15.626Z,25.50
2019-01-25T10:18:43.042Z,25.60
2019-01-25T10:21:10.482Z,24.60
2019-01-25T10:23:39.244Z,22.67
2019-01-25T10:26:06.777Z,24.40
2019-01-25T10:28:34.226Z,23.97
2019-01-25T10:31:01.721Z,23.20
2019-01-25T10:33:29.106Z,21.63
2019-01-25T10:35:56.530Z,21.90
2019-01-25T10:38:24.196Z,21.80
2019-01-25T10:40:52.098Z,19.93
2019-01-25T10:43:19.566Z,20.03
2019-01-25T10:45:46.966Z,21.70
2019-01-25T10:48:14.354Z,20.97
2019-01-25T10:50:41.994Z,20.27
2019-01-25T10:53:09.394Z,21.77
2019-01-25T10:55:36.787Z,20.63
2019-01-25T10:58:05.474Z,20.00
2019-01-25T11:00:32.888Z,21.73
2019-01-25T11:03:00.279Z,21.53
2019-01-25T11:05:28.184Z,20.57
2019-01-25T11:07:55.799Z,20.70
2019-01-25T11:10:23.290Z,19.33
2019-01-25T11:12:50.730Z,20.43
2019-01-25T11:15:21.690Z,20.47
2019-01-25T11:17:49.534Z,19.80
2019-01-25T11:20:21.760Z,22.83
2019-01-25T11:22:49.271Z,19.97
2019-01-25T11:25:24.848Z,20.87
2019-01-25T11:27:52.234Z,19.30
2019-01-25T11:30:19.842Z,19.70
2019-01-25T11:32:47.386Z,18.80
2019-01-25T11:35:14.786Z,18.77
2019-01-25T11:37:42.209Z,19.40
2019-01-25T11:40:22.459Z,19.60
2019-01-25T11:42:50.650Z,19.10
2019-01-25T11:45:18.140Z,16.87
2019-01-25T11:47:46.075Z,17.70
2019-01-25T11:50:14.603Z,16.60
2019-01-25T11:52:42.002Z,15.40
2019-01-25T11:55:09.954Z,16.20
2019-01-25T11:57:37.354Z,17.00
2019-01-25T12:00:08.419Z,17.00
2019-01-25T12:02:35.850Z,14.90
2019-01-25T12:05:03.758Z,14.10
2019-01-25T12:07:31.159Z,15.60
2019-01-25T12:09:58.607Z,15.37
2019-01-25T12:12:25.986Z,17.00
2019-01-25T12:14:53.395Z,17.40
2019-01-25T12:17:20.812Z,16.57
2019-01-25T12:19:48.225Z,16.37
2019-01-25T12:22:15.617Z,16.63
2019-01-25T12:24:43.055Z,15.93
2019-01-25T12:27:10.451Z,14.57
2019-01-25T12:29:37.868Z,16.23
2019-01-25T12:32:05.319Z,15.27
2019-01-25T12:34:32.742Z,14.67
2019-01-25T12:37:04.607Z,13.73
2019-01-25T12:39:29.538Z,16.60
2019-01-25T12:41:57.454Z,17.10
2019-01-25T12:44:24.836Z,18.77
2019-01-25T12:46:52.271Z,18.07
2019-01-25T12:49:19.674Z,17.57
2019-01-25T12:51:53.783Z,15.47
2019-01-25T12:54:21.202Z,16.43
2019-01-25T12:56:48.668Z,16.27
2019-01-25T12:59:16.159Z,17.80
2019-01-25T13:01:43.570Z,18.33
2019-01-25T13:04:10.995Z,16.10
2019-01-25T13:06:38.594Z,17.07
2019-01-25T13:09:08.818Z,16.83
2019-01-25T13:11:36.214Z,14.90
2019-01-25T13:14:03.767Z,14.47
2019-01-25T13:16:31.182Z,18.23
2019-01-25T13:19:00.394Z,17.20
2019-01-25T13:21:27.897Z,16.93
2019-01-25T13:23:55.286Z,15.60
2019-01-25T13:26:24.514Z,15.50
2019-01-25T13:28:51.973Z,16.93
2019-01-25T13:31:19.370Z,15.17
2019-01-25T13:33:48.674Z,15.10
2019-01-25T13:36:16.199Z,15.70
2019-01-25T13:38:43.595Z,16.57
2019-01-25T13:41:11.355Z,16.20
2019-01-25T13:43:39.358Z,17.40
2019-01-25T13:46:06.906Z,15.47
2019-01-25T13:48:34.298Z,17.63
2019-01-25T13:51:01.912Z,17.50
2019-01-25T13:53:29.298Z,16.73
2019-01-25T13:55:56.690Z,16.40
2019-01-25T13:58:24.160Z,18.57
2019-01-25T14:00:51.548Z,16.30
2019-01-25T14:03:18.943Z,17.00
2019-01-25T14:05:46.586Z,15.40
2019-01-25T14:08:14.039Z,16.07
2019-01-25T14:10:41.476Z,16.57
2019-01-25T14:13:09.070Z,14.30
2019-01-25T14:15:36.538Z,15.70
2019-01-25T14:18:04.762Z,15.07
2019-01-25T14:20:32.474Z,14.50
2019-01-25T14:23:00.005Z,16.87
2019-01-25T14:25:27.482Z,15.80
2019-01-25T14:27:54.931Z,16.80
2019-01-25T14:30:30.038Z,15.80
2019-01-25T14:32:57.673Z,17.27
2019-01-25T14:35:26.871Z,16.00
2019-01-25T14:37:54.271Z,16.17
2019-01-25T14:40:21.755Z,15.13
2019-01-25T14:42:49.223Z,18.50
2019-01-25T14:45:16.903Z,18.30
2019-01-25T14:47:44.360Z,36.33
2019-01-25T14:50:14.839Z,17.90
2019-01-25T14:52:42.259Z,31.60
2019-01-25T14:55:09.911Z,15.63
2019-01-25T14:57:37.320Z,15.60
2019-01-25T15:00:05.552Z,14.07
2019-01-25T15:02:33.001Z,16.00
2019-01-25T15:05:00.529Z,16.53
2019-01-25T15:07:27.914Z,18.17
2019-01-25T15:09:55.470Z,18.20
2019-01-25T15:12:22.926Z,17.50
2019-01-25T15:14:50.311Z,16.07
2019-01-25T15:17:17.930Z,14.57
2019-01-25T15:19:45.322Z,14.27
2019-01-25T15:22:12.727Z,14.90
2019-01-25T15:24:40.322Z,16.40
2019-01-25T15:27:07.760Z,16.00
2019-01-25T15:29:35.151Z,17.37
2019-01-25T15:32:02.656Z,15.30
2019-01-25T15:34:30.062Z,16.13
2019-01-25T15:36:57.463Z,14.90
2019-01-25T15:39:24.994Z,14.70
2019-01-25T15:41:52.675Z,13.30
2019-01-25T15:44:20.288Z,13.87
2019-01-25T15:46:47.730Z,12.30
2019-01-25T15:49:15.175Z,13.47
2019-01-25T15:51:42.655Z,14.53
2019-01-25T15:54:10.286Z,15.80
2019-01-25T15:56:37.690Z,13.73
2019-01-25T15:59:05.095Z,12.40
2019-01-25T16:01:32.524Z,13.43
2019-01-25T16:03:59.922Z,15.33
2019-01-25T16:06:27.336Z,14.33
2019-01-25T16:08:54.794Z,14.30
2019-01-25T16:11:22.199Z,17.10
2019-01-25T16:13:49.903Z,15.60
2019-01-25T16:16:17.358Z,14.40
2019-01-25T16:18:44.754Z,13.40
2019-01-25T16:21:12.158Z,11.00
2019-01-25T16:23:39.594Z,11.10
2019-01-25T16:26:07.070Z,10.90
2019-01-25T16:28:34.458Z,12.20
2019-01-25T16:31:02.127Z,13.10
2019-01-25T16:33:29.506Z,12.80
2019-01-25T16:35:56.916Z,13.13
2019-01-25T16:38:24.488Z,12.03
2019-01-25T16:40:52.072Z,14.33
2019-01-25T16:43:20.525Z,12.50
2019-01-25T16:45:48.106Z,18.07
2019-01-25T16:48:15.518Z,12.67
2019-01-25T16:50:42.995Z,12.00
2019-01-25T16:53:12.044Z,12.10
2019-01-25T16:55:39.447Z,12.40
2019-01-25T16:58:07.083Z,12.73
2019-01-25T17:00:40.384Z,12.20
2019-01-25T17:03:07.892Z,11.93
2019-01-25T17:05:36.786Z,12.90
2019-01-25T17:08:04.935Z,20.40
2019-01-25T17:10:32.330Z,17.07
2019-01-25T17:13:00.546Z,15.70
2019-01-25T17:15:27.942Z,18.17
2019-01-25T17:17:55.344Z,18.00
2019-01-25T17:20:23.075Z,16.47
2019-01-25T17:22:50.465Z,14.90
2019-01-25T17:25:17.874Z,14.17
2019-01-25T17:27:45.330Z,16.03
2019-01-25T17:30:26.793Z,13.70
2019-01-25T17:32:55.255Z,14.63
2019-01-25T17:35:22.662Z,11.90
2019-01-25T17:37:50.163Z,12.97
2019-01-25T17:40:19.082Z,13.17
2019-01-25T17:42:46.490Z,17.60
2019-01-25T17:45:15.022Z,18.67
2019-01-25T17:47:42.426Z,14.53
2019-01-25T17:50:11.406Z,13.13
2019-01-25T17:52:38.894Z,13.37
2019-01-25T17:55:07.155Z,13.20
2019-01-25T17:57:34.562Z,13.70
2019-01-25T18:00:02.039Z,13.00
2019-01-25T18:02:29.574Z,12.90
2019-01-25T18:04:57.070Z,14.33
2019-01-25T18:07:24.758Z,14.00
2019-01-25T18:09:52.176Z,12.77
2019-01-25T18:12:19.569Z,11.50
2019-01-25T18:14:49.326Z,11.90
2019-01-25T18:17:16.210Z,11.17
2019-01-25T18:19:43.622Z,11.83
2019-01-25T18:22:11.087Z,11.13
2019-01-25T18:24:38.486Z,11.67
2019-01-25T18:27:05.899Z,12.70
2019-01-25T18:30:00.099Z,13.50
2019-01-25T18:32:27.558Z,14.10
2019-01-25T18:34:54.961Z,10.80
2019-01-25T18:37:22.436Z,10.13
2019-01-25T18:39:49.846Z,12.60
2019-01-25T18:42:17.446Z,11.33
2019-01-25T18:44:44.922Z,10.03
2019-01-25T18:47:12.550Z,10.53
2019-01-25T18:49:39.956Z,13.63
2019-01-25T18:52:07.626Z,11.53
2019-01-25T18:54:35.026Z,13.80
2019-01-25T18:57:02.434Z,13.23
2019-01-25T18:59:30.012Z,13.70
2019-01-25T19:01:57.402Z,11.97
2019-01-25T19:04:24.810Z,11.17
2019-01-25T19:06:52.246Z,11.40
2019-01-25T19:09:19.652Z,11.10
2019-01-25T19:11:47.054Z,11.47
2019-01-25T19:14:14.589Z,9.37
2019-01-25T19:16:41.969Z,11.10
2019-01-25T19:19:09.462Z,11.87
2019-01-25T19:21:36.905Z,10.07
2019-01-25T19:24:04.319Z,9.43
2019-01-25T19:26:31.750Z,10.03
2019-01-25T19:28:59.202Z,12.67
2019-01-25T19:31:26.598Z,12.10
2019-01-25T19:33:53.993Z,11.70
2019-01-25T19:36:22.366Z,12.30
2019-01-25T19:38:49.927Z,13.07
2019-01-25T19:41:17.326Z,11.93
2019-01-25T19:43:44.823Z,12.05
2019-01-25T19:46:12.521Z,11.53
2019-01-25T19:48:40.210Z,13.80
2019-01-25T19:51:07.771Z,12.10
2019-01-25T19:53:35.539Z,11.80
2019-01-25T19:56:03.414Z,11.00
2019-01-25T19:58:33.823Z,11.13
2019-01-25T20:01:01.246Z,12.33
2019-01-25T20:03:28.673Z,10.50
2019-01-25T20:05:56.121Z,10.40
2019-01-25T20:08:23.538Z,12.60
2019-01-25T20:10:51.042Z,11.00
2019-01-25T20:13:18.817Z,11.22
2019-01-25T20:15:46.232Z,13.83
2019-01-25T20:18:13.662Z,11.77
2019-01-25T20:20:41.485Z,13.40
2019-01-25T20:23:09.032Z,12.93
2019-01-25T20:25:36.470Z,11.75
2019-01-25T20:28:05.797Z,10.47
2019-01-25T20:30:33.334Z,13.50
2019-01-25T20:33:01.579Z,13.25
2019-01-25T20:35:31.582Z,10.60
2019-01-25T20:37:58.977Z,11.30
2019-01-25T20:40:26.639Z,10.32
2019-01-25T20:42:54.475Z,13.40
2019-01-25T20:45:27.192Z,10.25
2019-01-25T20:47:54.634Z,9.75
2019-01-25T20:50:24.538Z,11.38
2019-01-25T20:52:53.870Z,10.20
2019-01-25T20:55:21.280Z,12.90
2019-01-25T20:57:48.867Z,11.90
2019-01-25T21:00:19.329Z,12.00
2019-01-25T21:02:46.811Z,11.68
2019-01-25T21:05:14.658Z,11.55
2019-01-25T21:07:42.171Z,13.78
2019-01-25T21:10:12.112Z,11.90
2019-01-25T21:12:39.818Z,11.40
2019-01-25T21:15:09.001Z,11.80
2019-01-25T21:17:36.414Z,10.25
2019-01-25T21:20:07.043Z,11.63
2019-01-25T21:22:34.518Z,11.18
2019-01-25T21:25:01.964Z,11.33
2019-01-25T21:27:29.420Z,13.20
2019-01-25T21:29:56.887Z,11.15
2019-01-25T21:32:24.290Z,9.40
2019-01-25T21:34:51.736Z,12.55
2019-01-25T21:37:19.150Z,10.13
2019-01-25T21:39:46.554Z,10.25
2019-01-25T21:42:14.139Z,8.98
2019-01-25T21:44:41.818Z,9.33
2019-01-25T21:47:09.532Z,12.00
2019-01-25T21:49:36.934Z,10.35
2019-01-25T21:52:04.433Z,11.90
2019-01-25T21:54:31.847Z,12.75
2019-01-25T21:56:59.839Z,10.88
2019-01-25T21:59:27.252Z,10.05
2019-01-25T22:01:54.668Z,10.48
2019-01-25T22:04:23.342Z,14.10
2019-01-25T22:06:50.890Z,12.58
2019-01-25T22:09:18.302Z,11.12
2019-01-25T22:11:45.942Z,11.95
2019-01-25T22:14:13.340Z,12.10
2019-01-25T22:16:40.762Z,9.65
2019-01-25T22:19:08.543Z,10.15
2019-01-25T22:21:36.962Z,8.73
2019-01-25T22:24:04.463Z,9.68
2019-01-25T22:26:31.943Z,8.18
2019-01-25T22:28:59.343Z,8.00
2019-01-25T22:31:26.763Z,7.75
2019-01-25T22:33:54.236Z,11.12
2019-01-25T22:36:21.639Z,11.25
2019-01-25T22:38:49.030Z,10.82
2019-01-25T22:41:16.619Z,11.33
2019-01-25T22:43:44.027Z,11.93
2019-01-25T22:46:11.658Z,11.65
2019-01-25T22:48:39.619Z,11.93
2019-01-25T22:51:07.006Z,10.85
2019-01-25T22:53:34.418Z,10.82
2019-01-25T22:56:01.902Z,9.58
2019-01-25T22:58:29.320Z,8.55
2019-01-25T23:01:24.251Z,9.18
2019-01-25T23:04:28.909Z,10.32
2019-01-25T23:07:17.406Z,8.13
2019-01-25T23:09:56.339Z,8.85
2019-01-25T23:12:24.104Z,11.18
2019-01-25T23:14:51.488Z,10.45
2019-01-25T23:17:18.909Z,10.70
2019-01-25T23:19:46.483Z,9.88
2019-01-25T23:22:13.879Z,10.65
2019-01-25T23:24:41.289Z,11.23
2019-01-25T23:27:08.774Z,10.48
2019-01-25T23:29:36.170Z,9.18
2019-01-25T23:32:03.934Z,8.05
2019-01-25T23:34:31.466Z,7.40
2019-01-25T23:36:58.863Z,9.75
2019-01-25T23:39:26.258Z,8.83
2019-01-25T23:41:53.734Z,9.70
2019-01-25T23:44:21.123Z,10.55
2019-01-25T23:46:48.674Z,9.88
2019-01-25T23:49:16.735Z,8.95
2019-01-25T23:51:44.130Z,10.13
2019-01-25T23:54:11.536Z,9.25
2019-01-25T23:56:38.961Z,8.18
2019-01-25T23:59:06.370Z,8.08
